Time;durP1;ratioP1;P1;durP2;ratioP2;P2;SDS_P1;SDS_P2;PMS_P1;PMS_P2;Temp;Humidity;BMP_temperature;BMP_pressure;BME280_temperature;BME280_humidity;BME280_pressure;Samples;Min_cycle;Max_cycle;Signal;HPM_P1;HPM_P2
2023/04/07 00:01:03;;;;;;;14.73;7.47;;;10.30;99.90;;;;;;5112956;28;20043;-77
2023/04/07 00:03:29;;;;;;;16.33;6.85;;;10.30;99.90;;;;;;5112897;28;20058;-77
2023/04/07 00:05:55;;;;;;;14.75;7.20;;;10.30;99.90;;;;;;5113728;28;20035;-77
2023/04/07 00:08:20;;;;;;;16.38;7.43;;;10.30;99.90;;;;;;5113880;28;20028;-77
2023/04/07 00:10:46;;;;;;;17.30;6.93;;;10.30;99.90;;;;;;5112768;28;20095;-77
2023/04/07 00:13:12;;;;;;;15.00;6.63;;;10.30;99.90;;;;;;5113821;28;20024;-77
2023/04/07 00:15:37;;;;;;;14.95;7.03;;;10.30;99.90;;;;;;5112746;28;20035;-77
2023/04/07 00:18:03;;;;;;;13.27;6.57;;;10.30;99.90;;;;;;5113623;28;20028;-77
2023/04/07 00:20:29;;;;;;;15.50;6.55;;;10.30;99.90;;;;;;5113573;28;20115;-77
2023/04/07 00:22:54;;;;;;;13.55;6.65;;;10.30;99.90;;;;;;5113579;28;20032;-77
2023/04/07 00:25:20;;;;;;;16.83;6.72;;;10.30;99.90;;;;;;5113465;28;20044;-77
2023/04/07 00:27:46;;;;;;;14.00;6.45;;;10.30;99.90;;;;;;5113494;28;20025;-77
2023/04/07 00:30:11;;;;;;;14.68;6.28;;;10.30;99.90;;;;;;5112455;28;20042;-77
2023/04/07 00:32:37;;;;;;;12.65;6.00;;;10.20;99.90;;;;;;5112572;28;20035;-77
2023/04/07 00:35:03;;;;;;;11.65;5.78;;;10.20;99.90;;;;;;5113363;28;20028;-77
2023/04/07 00:37:29;;;;;;;12.63;5.68;;;10.20;99.90;;;;;;5112400;28;20048;-77
2023/04/07 00:39:56;;;;;;;14.80;6.22;;;10.30;99.90;;;;;;5112384;28;20036;-77
2023/04/07 00:42:21;;;;;;;13.40;5.97;;;10.20;99.90;;;;;;5113410;28;20024;-77
2023/04/07 00:44:47;;;;;;;11.80;5.45;;;10.30;99.90;;;;;;5112461;28;20032;-77
2023/04/07 00:47:14;;;;;;;12.55;5.90;;;10.20;99.90;;;;;;5113257;28;20028;-77
2023/04/07 00:49:40;;;;;;;12.43;5.90;;;10.20;99.90;;;;;;5095709;28;20027;-77
2023/04/07 00:52:06;;;;;;;12.20;5.82;;;10.20;99.70;;;;;;5095420;28;20036;-77
2023/04/07 00:54:32;;;;;;;12.30;5.53;;;10.30;99.70;;;;;;5113303;28;20021;-77
2023/04/07 00:56:58;;;;;;;12.00;5.75;;;10.20;99.60;;;;;;5112290;28;20066;-77
2023/04/07 00:59:24;;;;;;;11.68;5.22;;;10.20;99.60;;;;;;5112290;28;20063;-77
2023/04/07 01:01:52;;;;;;;14.40;6.32;;;10.20;99.60;;;;;;5113363;28;20048;-77
2023/04/07 01:04:41;;;;;;;12.02;5.93;;;10.20;99.50;;;;;;5113159;28;20024;-77
2023/04/07 01:07:47;;;;;;;11.48;5.68;;;10.20;99.60;;;;;;5113163;28;20085;-77
2023/04/07 01:10:18;;;;;;;13.50;5.68;;;10.20;99.60;;;;;;5076924;28;20137;-77
2023/04/07 01:12:53;;;;;;;14.02;6.38;;;10.20;99.50;;;;;;5117257;28;20027;-77
2023/04/07 01:15:21;;;;;;;14.02;6.85;;;10.20;99.50;;;;;;5116106;28;20027;-77
2023/04/07 01:17:52;;;;;;;16.98;6.22;;;10.20;99.50;;;;;;5115953;28;20031;-77
2023/04/07 01:20:21;;;;;;;15.73;6.47;;;10.20;99.50;;;;;;5116972;28;20020;-77
2023/04/07 01:23:03;;;;;;;11.63;5.82;;;10.20;99.50;;;;;;5116871;28;20075;-77
2023/04/07 01:26:02;;;;;;;11.20;5.60;;;10.20;99.60;;;;;;5116799;28;20031;-77
2023/04/07 01:29:14;;;;;;;11.30;5.03;;;10.10;99.50;;;;;;5116917;28;20050;-77
2023/04/07 01:31:40;;;;;;;13.55;5.00;;;10.10;99.50;;;;;;5113509;28;20024;-77
2023/04/07 01:34:09;;;;;;;10.15;4.53;;;10.10;99.50;;;;;;5116559;28;20024;-77
2023/04/07 01:36:35;;;;;;;10.82;4.78;;;10.10;99.40;;;;;;5115411;28;20496;-77
2023/04/07 01:39:01;;;;;;;7.47;4.10;;;10.10;99.40;;;;;;5116589;28;20028;-77
2023/04/07 01:41:28;;;;;;;10.55;4.15;;;10.10;99.40;;;;;;5098557;28;20115;-77
2023/04/07 01:43:55;;;;;;;7.47;4.20;;;10.10;99.30;;;;;;5116312;28;20055;-77
2023/04/07 01:46:21;;;;;;;14.55;5.25;;;10.20;99.30;;;;;;5116341;28;20030;-77
2023/04/07 01:48:48;;;;;;;8.95;3.90;;;10.10;99.20;;;;;;5115345;28;20067;-77
2023/04/07 01:51:17;;;;;;;8.00;3.83;;;10.10;99.10;;;;;;5116360;28;20083;-77
2023/04/07 01:53:47;;;;;;;9.57;3.53;;;10.10;99.10;;;;;;5116324;28;20028;-77
2023/04/07 01:56:13;;;;;;;9.18;3.70;;;10.10;99.00;;;;;;5115267;28;20035;-77
2023/04/07 01:58:39;;;;;;;10.70;4.07;;;10.20;99.00;;;;;;5116199;28;20028;-77
2023/04/07 02:01:05;;;;;;;9.70;3.90;;;10.10;99.00;;;;;;5098295;28;20034;-77
2023/04/07 02:03:41;;;;;;;7.75;3.58;;;10.20;98.90;;;;;;5116102;28;20044;-77
2023/04/07 02:06:11;;;;;;;9.13;3.80;;;10.10;98.90;;;;;;5116167;28;20027;-77
2023/04/07 02:08:41;;;;;;;7.22;3.22;;;10.10;98.80;;;;;;5115763;28;20020;-77
2023/04/07 02:11:09;;;;;;;7.90;3.65;;;10.10;98.80;;;;;;5116114;28;20020;-77
2023/04/07 02:13:37;;;;;;;7.40;3.55;;;10.10;98.80;;;;;;5115932;28;20024;-77
2023/04/07 02:16:05;;;;;;;7.93;3.42;;;10.10;98.80;;;;;;5114875;28;20476;-77
2023/04/07 02:18:31;;;;;;;7.20;3.10;;;10.10;98.70;;;;;;5114590;28;20035;-77
2023/04/07 02:20:58;;;;;;;6.80;3.17;;;10.10;98.70;;;;;;5114848;28;20048;-77
2023/04/07 02:23:24;;;;;;;8.07;3.30;;;10.10;98.50;;;;;;5114667;28;20020;-77
2023/04/07 02:25:50;;;;;;;9.23;3.45;;;10.10;98.50;;;;;;5115566;28;20115;-77
2023/04/07 02:28:15;;;;;;;8.65;3.60;;;10.10;98.50;;;;;;5114729;28;20031;-77
2023/04/07 02:30:41;;;;;;;7.75;3.40;;;10.10;98.50;;;;;;5115599;28;20031;-77
2023/04/07 02:33:07;;;;;;;6.25;3.20;;;10.10;98.50;;;;;;5114514;28;20028;-77
2023/04/07 02:35:32;;;;;;;6.25;2.72;;;10.10;98.50;;;;;;5115485;28;20055;-77
2023/04/07 02:37:58;;;;;;;8.70;3.22;;;10.10;98.50;;;;;;5097538;28;20512;-77
2023/04/07 02:40:24;;;;;;;9.57;3.20;;;10.10;98.40;;;;;;5115393;28;20043;-77
2023/04/07 02:42:49;;;;;;;12.30;3.53;;;10.10;98.40;;;;;;5114427;28;20032;-77
2023/04/07 02:45:15;;;;;;;8.00;3.47;;;10.10;98.40;;;;;;5115318;28;20036;-77
2023/04/07 02:47:41;;;;;;;4.90;2.72;;;10.10;98.30;;;;;;5115222;28;20051;-77
2023/04/07 02:50:06;;;;;;;8.02;3.17;;;10.10;98.30;;;;;;5114425;28;20028;-77
2023/04/07 02:52:32;;;;;;;8.40;2.88;;;10.00;98.20;;;;;;5097290;28;20035;-77
2023/04/07 02:54:58;;;;;;;7.65;3.35;;;10.00;98.30;;;;;;5114117;28;20043;-77
2023/04/07 02:57:23;;;;;;;9.02;3.13;;;10.10;98.30;;;;;;5114094;28;20036;-77
2023/04/07 02:59:49;;;;;;;9.88;3.65;;;10.10;98.40;;;;;;5114980;28;20031;-77
2023/04/07 03:02:14;;;;;;;13.38;3.83;;;10.10;98.40;;;;;;5114916;28;20123;-77
2023/04/07 03:04:41;;;;;;;8.48;3.47;;;10.00;98.30;;;;;;5113967;28;20031;-77
2023/04/07 03:07:07;;;;;;;8.27;3.15;;;10.10;98.30;;;;;;5114782;28;20024;-77
2023/04/07 03:09:32;;;;;;;8.15;3.03;;;10.10;98.30;;;;;;5096910;28;20113;-77
2023/04/07 03:11:58;;;;;;;7.90;3.25;;;10.10;98.50;;;;;;5114903;28;20044;-77
2023/04/07 03:14:24;;;;;;;9.70;3.00;;;10.10;98.40;;;;;;5113687;28;20039;-77
2023/04/07 03:16:49;;;;;;;9.90;3.40;;;10.10;98.40;;;;;;5114814;28;20024;-77
2023/04/07 03:19:15;;;;;;;6.40;3.20;;;10.00;98.30;;;;;;5114610;28;20039;-77
2023/04/07 03:21:41;;;;;;;9.88;3.45;;;10.00;98.30;;;;;;5113724;28;20031;-77
2023/04/07 03:24:07;;;;;;;6.45;3.15;;;10.00;98.30;;;;;;5113620;28;20024;-77
2023/04/07 03:26:32;;;;;;;8.48;3.30;;;10.10;98.30;;;;;;5113424;28;20028;-77
2023/04/07 03:28:58;;;;;;;10.02;3.92;;;10.10;98.30;;;;;;5114567;28;20038;-77
2023/04/07 03:31:24;;;;;;;8.38;4.13;;;10.10;98.20;;;;;;5112722;28;20035;-77
2023/04/07 03:33:50;;;;;;;8.57;3.72;;;10.10;98.30;;;;;;5114253;28;20035;-77
2023/04/07 03:36:17;;;;;;;12.35;4.13;;;10.10;98.20;;;;;;5114318;28;20043;-77
2023/04/07 03:38:43;;;;;;;9.88;3.83;;;10.10;98.20;;;;;;5114158;28;20076;-77
2023/04/07 03:41:09;;;;;;;8.60;3.72;;;10.10;98.10;;;;;;5114204;28;20017;-77
2023/04/07 03:43:35;;;;;;;10.50;3.88;;;10.10;98.10;;;;;;5113248;28;20024;-77
2023/04/07 03:46:01;;;;;;;10.38;4.20;;;10.10;98.10;;;;;;5113046;28;20040;-77
2023/04/07 03:48:26;;;;;;;8.95;3.22;;;10.10;98.10;;;;;;5113168;28;20031;-77
2023/04/07 03:50:52;;;;;;;10.70;4.10;;;10.10;98.10;;;;;;5114044;28;20031;-77
2023/04/07 03:53:18;;;;;;;7.80;3.53;;;10.00;98.10;;;;;;5113130;28;20024;-77
2023/04/07 03:55:44;;;;;;;9.10;3.30;;;10.10;98.10;;;;;;5113999;28;20044;-77
2023/04/07 03:58:10;;;;;;;8.23;3.05;;;10.00;98.10;;;;;;5113968;28;20077;-77
2023/04/07 04:00:36;;;;;;;12.25;4.78;;;10.00;98.20;;;;;;5112949;28;20024;-77
2023/04/07 04:03:02;;;;;;;9.35;3.72;;;10.00;98.20;;;;;;5113889;28;20047;-77
2023/04/07 04:05:28;;;;;;;9.65;3.50;;;10.00;98.20;;;;;;5112754;28;20027;-77
2023/04/07 04:07:53;;;;;;;11.38;3.47;;;10.00;98.30;;;;;;5095936;28;20465;-77
2023/04/07 04:10:19;;;;;;;8.88;3.53;;;10.00;98.20;;;;;;5113767;28;20083;-77
2023/04/07 04:12:47;;;;;;;8.07;3.17;;;10.10;98.30;;;;;;5113693;28;20047;-77
2023/04/07 04:15:12;;;;;;;9.73;3.42;;;10.10;98.20;;;;;;5112760;28;20030;-77
2023/04/07 04:17:38;;;;;;;13.02;4.50;;;10.00;98.20;;;;;;5113671;28;20020;-77
2023/04/07 04:20:05;;;;;;;11.40;3.58;;;10.00;98.20;;;;;;5112598;28;20025;-77
2023/04/07 04:22:31;;;;;;;9.65;3.35;;;10.00;98.20;;;;;;5112685;28;20028;-77
2023/04/07 04:24:58;;;;;;;9.95;3.53;;;10.00;98.20;;;;;;5113575;28;20024;-77
2023/04/07 04:27:23;;;;;;;11.15;3.83;;;10.00;98.20;;;;;;5112464;28;20043;-77
2023/04/07 04:29:49;;;;;;;9.90;3.60;;;10.00;98.20;;;;;;5113496;28;20464;-77
2023/04/07 04:32:16;;;;;;;11.98;3.83;;;10.00;98.20;;;;;;5113500;28;20047;-77
2023/04/07 04:34:42;;;;;;;9.10;3.40;;;10.10;98.20;;;;;;5112365;28;20020;-77
2023/04/07 04:37:08;;;;;;;10.25;3.63;;;10.00;98.10;;;;;;5095386;28;20052;-77
2023/04/07 04:39:34;;;;;;;12.00;3.15;;;10.10;98.10;;;;;;5112565;28;20028;-77
2023/04/07 04:42:00;;;;;;;12.27;3.58;;;10.00;98.10;;;;;;5113197;28;20496;-77
2023/04/07 04:44:25;;;;;;;7.50;2.92;;;10.10;98.00;;;;;;5117638;28;20031;-77
2023/04/07 04:46:51;;;;;;;8.90;3.55;;;10.10;98.00;;;;;;5117505;28;20040;-77
2023/04/07 04:49:17;;;;;;;7.97;3.13;;;10.10;98.00;;;;;;5117681;28;20024;-77
2023/04/07 04:51:44;;;;;;;7.55;3.40;;;10.10;98.00;;;;;;5117499;28;20024;-77
2023/04/07 04:54:09;;;;;;;8.30;3.25;;;10.10;98.00;;;;;;5117429;28;20080;-77
2023/04/07 04:56:35;;;;;;;7.82;2.88;;;10.10;97.90;;;;;;5117449;28;20062;-77
2023/04/07 04:59:03;;;;;;;9.20;2.92;;;10.10;97.90;;;;;;5116425;28;20044;-77
2023/04/07 05:01:28;;;;;;;9.27;3.05;;;10.10;98.20;;;;;;5117324;28;20049;-77
2023/04/07 05:03:54;;;;;;;8.15;2.88;;;10.10;97.80;;;;;;5116192;28;20028;-77
2023/04/07 05:06:20;;;;;;;8.05;2.80;;;10.10;97.70;;;;;;5116231;28;20032;-77
2023/04/07 05:08:45;;;;;;;9.30;3.05;;;10.10;97.70;;;;;;5116140;28;20050;-77
2023/04/07 05:11:11;;;;;;;8.27;2.95;;;10.10;97.70;;;;;;5117133;28;20020;-77
2023/04/07 05:13:37;;;;;;;9.85;3.08;;;10.10;97.70;;;;;;5116234;28;20024;-77
2023/04/07 05:16:03;;;;;;;8.05;2.95;;;10.10;97.70;;;;;;5117009;28;20085;-77
2023/04/07 05:18:29;;;;;;;7.43;2.92;;;10.00;97.70;;;;;;5116997;28;20028;-77
2023/04/07 05:20:55;;;;;;;6.65;3.20;;;10.00;98.10;;;;;;5116930;28;20115;-77
2023/04/07 05:23:20;;;;;;;10.75;3.80;;;10.00;97.70;;;;;;5116889;28;20080;-77
2023/04/07 05:25:46;;;;;;;9.65;3.25;;;10.00;97.80;;;;;;5098888;28;20035;-77
2023/04/07 05:28:12;;;;;;;7.95;3.30;;;10.00;97.80;;;;;;5116742;28;20027;-77
2023/04/07 05:30:37;;;;;;;10.30;3.88;;;10.00;97.70;;;;;;5115718;28;20035;-77
2023/04/07 05:33:03;;;;;;;9.98;3.55;;;10.00;97.70;;;;;;5098736;28;20028;-77
2023/04/07 05:35:28;;;;;;;11.95;3.65;;;10.00;97.80;;;;;;5115727;28;20032;-77
2023/04/07 05:37:54;;;;;;;8.18;4.15;;;10.00;97.80;;;;;;5098493;28;20036;-77
2023/04/07 05:40:20;;;;;;;9.50;4.07;;;10.00;97.90;;;;;;5116538;28;20039;-77
2023/04/07 05:42:45;;;;;;;13.23;4.55;;;10.00;98.00;;;;;;5116518;28;20050;-77
2023/04/07 05:45:11;;;;;;;11.45;4.80;;;10.00;98.00;;;;;;5116450;28;20024;-77
2023/04/07 05:47:36;;;;;;;11.75;3.92;;;10.00;98.00;;;;;;5116288;28;20020;-77
2023/04/07 05:50:02;;;;;;;12.15;4.13;;;10.00;97.90;;;;;;5115341;28;20028;-77
2023/04/07 05:52:28;;;;;;;11.13;4.25;;;10.00;97.90;;;;;;5116356;28;20027;-76
2023/04/07 05:54:53;;;;;;;13.20;4.57;;;10.00;98.00;;;;;;5114620;28;20049;-77
2023/04/07 05:57:21;;;;;;;14.20;4.38;;;10.00;98.00;;;;;;5098381;28;20028;-77
2023/04/07 05:59:47;;;;;;;13.50;4.28;;;10.00;98.00;;;;;;5098301;28;20024;-77
2023/04/07 06:02:13;;;;;;;12.88;4.38;;;10.00;98.00;;;;;;5115213;28;20031;-77
2023/04/07 06:04:39;;;;;;;12.38;5.10;;;10.00;98.00;;;;;;5098028;28;20043;-77
2023/04/07 06:07:04;;;;;;;13.00;4.70;;;10.00;97.90;;;;;;5098086;28;20031;-77
2023/04/07 06:09:30;;;;;;;15.43;4.47;;;10.00;97.90;;;;;;5115926;28;20024;-77
2023/04/07 06:11:56;;;;;;;16.50;4.85;;;10.00;98.30;;;;;;5114966;28;20024;-77
2023/04/07 06:14:22;;;;;;;15.35;5.30;;;10.00;97.90;;;;;;5114945;28;20016;-76
2023/04/07 06:16:48;;;;;;;13.70;4.47;;;10.00;97.90;;;;;;5116038;28;20025;-76
2023/04/07 06:19:14;;;;;;;12.18;4.75;;;10.00;97.90;;;;;;5114777;28;20088;-76
2023/04/07 06:21:39;;;;;;;16.85;6.35;;;10.00;98.00;;;;;;5115755;28;20020;-77
2023/04/07 06:24:06;;;;;;;10.63;4.80;;;10.00;98.20;;;;;;5115825;28;20500;-77
2023/04/07 06:26:31;;;;;;;15.02;4.88;;;9.90;98.20;;;;;;5115575;28;20031;-77
2023/04/07 06:28:57;;;;;;;20.40;5.70;;;9.90;98.20;;;;;;5114547;28;20024;-77
2023/04/07 06:31:24;;;;;;;14.05;5.50;;;9.90;98.20;;;;;;5114533;28;20028;-77
2023/04/07 06:33:49;;;;;;;17.17;4.85;;;9.90;98.30;;;;;;5114415;28;20020;-77
2023/04/07 06:36:15;;;;;;;11.43;4.53;;;9.90;98.20;;;;;;5114492;28;20046;-77
2023/04/07 06:38:41;;;;;;;12.90;4.93;;;9.90;98.30;;;;;;5115279;28;20092;-77
2023/04/07 06:41:10;;;;;;;16.40;5.07;;;9.90;98.40;;;;;;5115300;28;20085;-77
2023/04/07 06:43:36;;;;;;;16.35;5.35;;;10.00;98.30;;;;;;5114436;28;20087;-77
2023/04/07 06:46:02;;;;;;;14.90;5.82;;;10.00;98.30;;;;;;5115126;28;20054;-77
2023/04/07 06:48:27;;;;;;;13.70;5.40;;;10.00;98.30;;;;;;5114159;28;20028;-76
2023/04/07 06:50:53;;;;;;;15.32;5.13;;;10.00;98.40;;;;;;5115127;28;20107;-77
2023/04/07 06:53:19;;;;;;;16.02;5.90;;;9.90;98.40;;;;;;5115139;28;20048;-77
2023/04/07 06:55:45;;;;;;;19.70;5.50;;;9.90;98.40;;;;;;5115091;28;20090;-77
2023/04/07 06:58:11;;;;;;;17.17;5.45;;;9.90;98.50;;;;;;5115003;28;20028;-77
2023/04/07 07:00:36;;;;;;;14.43;5.55;;;9.90;98.50;;;;;;5114965;28;20104;-76
2023/04/07 07:03:02;;;;;;;15.07;5.78;;;9.90;98.50;;;;;;5114887;28;20039;-76
2023/04/07 07:05:28;;;;;;;16.25;6.25;;;9.90;98.50;;;;;;5113817;28;20028;-77
2023/04/07 07:07:53;;;;;;;13.38;5.70;;;9.90;98.50;;;;;;5114725;28;20080;-77
2023/04/07 07:10:21;;;;;;;13.20;5.88;;;9.90;98.40;;;;;;5114761;28;20048;-77
2023/04/07 07:12:47;;;;;;;14.25;6.05;;;9.90;98.40;;;;;;5114796;28;20024;-77
2023/04/07 07:15:13;;;;;;;16.90;5.78;;;10.00;98.40;;;;;;5113709;28;20020;-77
2023/04/07 07:17:39;;;;;;;14.63;6.05;;;10.00;98.30;;;;;;5114682;28;20088;-77
2023/04/07 07:20:06;;;;;;;15.07;6.00;;;9.90;98.80;;;;;;5113656;28;20035;-77
2023/04/07 07:22:31;;;;;;;12.98;5.45;;;9.90;98.40;;;;;;5114645;28;20067;-77
2023/04/07 07:24:57;;;;;;;12.88;5.10;;;10.00;98.40;;;;;;5113581;28;20042;-77
2023/04/07 07:27:23;;;;;;;16.88;5.28;;;10.00;98.40;;;;;;5096486;28;20039;-77
2023/04/07 07:29:48;;;;;;;14.73;5.97;;;10.00;98.40;;;;;;5113542;28;20023;-77
2023/04/07 07:32:14;;;;;;;15.52;4.78;;;10.00;98.40;;;;;;5114446;28;20479;-77
2023/04/07 07:34:40;;;;;;;12.23;5.75;;;10.10;98.40;;;;;;5113340;28;20024;-77
2023/04/07 07:37:05;;;;;;;12.13;4.68;;;10.10;98.40;;;;;;5113356;28;20571;-77
2023/04/07 07:39:31;;;;;;;15.30;5.38;;;10.10;98.20;;;;;;5114274;28;20032;-77
2023/04/07 07:41:57;;;;;;;15.65;6.30;;;10.10;98.20;;;;;;5114240;28;20024;-77
2023/04/07 07:44:22;;;;;;;16.80;6.20;;;10.10;98.20;;;;;;5114172;28;20039;-77
2023/04/07 07:46:49;;;;;;;11.68;5.35;;;10.20;98.20;;;;;;5096218;28;20021;-77
2023/04/07 07:49:15;;;;;;;15.07;5.53;;;10.20;98.00;;;;;;5113106;28;20024;-77
2023/04/07 07:51:41;;;;;;;15.43;6.55;;;10.30;98.00;;;;;;5113128;28;20024;-77
2023/04/07 07:54:08;;;;;;;14.70;6.55;;;10.30;97.90;;;;;;5114043;28;20027;-77
2023/04/07 07:56:34;;;;;;;15.07;6.25;;;10.30;97.80;;;;;;5114031;28;20050;-77
2023/04/07 07:58:59;;;;;;;17.67;6.60;;;10.30;97.70;;;;;;5112919;28;20032;-77
2023/04/07 08:01:25;;;;;;;18.02;6.68;;;10.30;97.60;;;;;;5113924;28;20035;-77
2023/04/07 08:03:51;;;;;;;15.50;6.63;;;10.30;97.50;;;;;;5113042;28;20031;-77
2023/04/07 08:06:16;;;;;;;16.20;7.18;;;10.30;97.50;;;;;;5095874;28;20036;-77
2023/04/07 08:08:43;;;;;;;15.18;6.53;;;10.30;97.40;;;;;;5113808;28;20028;-77
2023/04/07 08:11:09;;;;;;;13.52;6.82;;;10.30;97.40;;;;;;5095807;28;20020;-77
2023/04/07 08:13:35;;;;;;;16.98;6.75;;;10.40;97.40;;;;;;5113865;28;20095;-77
2023/04/07 08:16:01;;;;;;;16.05;7.05;;;10.40;97.40;;;;;;5112769;28;20035;-77
2023/04/07 08:18:26;;;;;;;13.20;5.35;;;10.50;97.30;;;;;;5112239;28;20058;-77
2023/04/07 08:20:52;;;;;;;12.50;5.50;;;10.50;97.00;;;;;;5113666;28;20054;-77
2023/04/07 08:23:18;;;;;;;12.20;5.03;;;10.50;96.80;;;;;;5112740;28;20025;-77
2023/04/07 08:25:43;;;;;;;9.10;4.30;;;10.50;96.90;;;;;;5095676;28;20032;-77
2023/04/07 08:28:09;;;;;;;10.70;4.28;;;10.60;96.90;;;;;;5113470;28;20031;-77
2023/04/07 08:30:35;;;;;;;8.38;3.78;;;10.60;96.90;;;;;;5112564;28;20054;-77
2023/04/07 08:33:00;;;;;;;14.55;4.28;;;10.70;96.70;;;;;;5095797;28;20039;-77
2023/04/07 08:35:26;;;;;;;9.23;3.92;;;10.70;96.50;;;;;;5113587;28;20418;-77
2023/04/07 08:37:53;;;;;;;7.63;3.72;;;10.70;96.50;;;;;;5095487;28;20052;-77
2023/04/07 08:40:19;;;;;;;9.32;3.67;;;10.70;96.50;;;;;;5095561;28;20058;-77
2023/04/07 08:42:48;;;;;;;7.80;3.70;;;10.80;96.50;;;;;;5112428;28;20023;-77
2023/04/07 08:45:16;;;;;;;13.73;4.47;;;10.80;96.40;;;;;;5113415;28;20024;-77
2023/04/07 08:47:42;;;;;;;12.63;3.97;;;10.80;96.30;;;;;;5112448;28;20036;-77
2023/04/07 08:50:10;;;;;;;12.10;5.00;;;10.70;96.20;;;;;;5112465;28;20025;-77
2023/04/07 08:52:54;;;;;;;14.02;5.25;;;10.70;96.00;;;;;;5113250;28;20031;-77
2023/04/07 08:55:20;;;;;;;13.23;5.40;;;10.70;96.00;;;;;;5112603;28;20033;-77
2023/04/07 08:57:46;;;;;;;12.07;5.68;;;10.70;96.00;;;;;;5113270;28;20039;-77
2023/04/07 09:00:13;;;;;;;12.32;5.47;;;10.60;96.00;;;;;;5113251;28;20027;-77
2023/04/07 09:02:42;;;;;;;12.95;5.40;;;10.60;96.00;;;;;;5113278;28;20028;-77
2023/04/07 09:05:08;;;;;;;12.85;4.78;;;10.70;96.10;;;;;;5112238;28;20024;-77
2023/04/07 09:07:35;;;;;;;12.43;5.00;;;10.70;96.10;;;;;;5113110;28;20025;-77
2023/04/07 09:10:03;;;;;;;11.73;5.20;;;10.70;96.00;;;;;;5113134;28;20020;-77
2023/04/07 09:12:30;;;;;;;13.57;5.07;;;10.70;96.00;;;;;;5112160;28;20024;-77
2023/04/07 09:14:56;;;;;;;15.18;5.57;;;10.80;96.00;;;;;;5113105;28;20043;-77
2023/04/07 09:17:28;;;;;;;11.10;5.00;;;10.80;95.90;;;;;;5113028;28;20039;-77
2023/04/07 09:19:58;;;;;;;10.65;5.00;;;10.80;95.90;;;;;;5113108;28;20083;-77
2023/04/07 09:22:41;;;;;;;11.95;5.20;;;10.80;96.40;;;;;;5113077;28;20031;-77
2023/04/07 09:25:25;;;;;;;8.07;4.43;;;10.80;96.00;;;;;;5111959;28;20028;-77
2023/04/07 09:27:58;;;;;;;9.77;4.40;;;10.80;96.00;;;;;;5113039;28;20024;-77
2023/04/07 09:30:23;;;;;;;12.23;5.47;;;10.80;96.00;;;;;;5115822;28;20019;-77
2023/04/07 09:32:49;;;;;;;11.63;4.82;;;10.90;96.00;;;;;;5116744;28;20013;-77
2023/04/07 09:35:15;;;;;;;12.57;4.75;;;10.90;96.00;;;;;;5116611;28;20511;-77
2023/04/07 09:37:41;;;;;;;9.25;4.63;;;10.90;95.80;;;;;;5115465;28;20052;-77
2023/04/07 09:40:08;;;;;;;14.02;4.38;;;11.00;95.70;;;;;;5115662;28;20065;-77
2023/04/07 09:42:35;;;;;;;11.77;4.50;;;10.90;95.60;;;;;;5116547;28;20032;-77
2023/04/07 09:45:02;;;;;;;11.23;4.38;;;10.90;95.50;;;;;;5115511;28;20094;-77
2023/04/07 09:47:28;;;;;;;9.48;4.15;;;10.90;95.40;;;;;;5115425;28;20054;-77
2023/04/07 09:49:55;;;;;;;12.75;4.30;;;10.90;95.40;;;;;;5115402;28;20016;-77
2023/04/07 09:52:52;;;;;;;10.85;4.50;;;10.90;95.50;;;;;;5116396;28;20028;-77
2023/04/07 09:55:21;;;;;;;12.75;4.97;;;11.00;95.40;;;;;;5115226;28;20024;-77
2023/04/07 09:57:51;;;;;;;9.07;4.13;;;10.90;95.40;;;;;;5115221;28;20022;-77
2023/04/07 10:00:17;;;;;;;11.82;4.65;;;11.00;95.40;;;;;;5115237;28;20032;-77
2023/04/07 10:02:44;;;;;;;11.63;4.40;;;11.00;95.40;;;;;;5115012;28;20027;-77
2023/04/07 10:05:10;;;;;;;13.20;5.20;;;11.00;95.40;;;;;;5116143;28;20083;-77
2023/04/07 10:07:36;;;;;;;13.05;4.97;;;11.00;95.30;;;;;;5115931;28;20042;-77
2023/04/07 10:10:07;;;;;;;18.08;5.63;;;11.00;95.40;;;;;;5098136;28;20469;-77
2023/04/07 10:12:35;;;;;;;12.73;5.55;;;11.00;95.30;;;;;;5116115;28;20025;-77
2023/04/07 10:15:01;;;;;;;15.52;5.28;;;10.90;95.20;;;;;;5114924;28;20024;-77
2023/04/07 10:17:28;;;;;;;11.80;4.68;;;10.90;95.20;;;;;;5116017;28;20036;-77
2023/04/07 10:19:56;;;;;;;11.70;4.82;;;10.90;95.20;;;;;;5114814;28;20024;-76
2023/04/07 10:22:22;;;;;;;13.80;5.10;;;10.90;95.20;;;;;;5114772;28;20024;-77
2023/04/07 10:25:03;;;;;;;11.38;5.15;;;10.90;95.10;;;;;;5115684;28;20032;-77
2023/04/07 10:27:34;;;;;;;11.25;4.35;;;10.90;95.20;;;;;;5114705;28;20106;-77
2023/04/07 10:30:01;;;;;;;12.55;4.90;;;11.00;95.20;;;;;;5115756;28;20028;-76
2023/04/07 10:32:26;;;;;;;15.38;5.97;;;11.00;95.20;;;;;;5115603;28;20054;-77
2023/04/07 10:34:53;;;;;;;12.05;5.57;;;11.00;95.10;;;;;;5115475;28;20028;-76
2023/04/07 10:37:21;;;;;;;16.00;6.38;;;11.00;95.10;;;;;;5115181;28;20060;-76
2023/04/07 10:39:48;;;;;;;12.55;5.38;;;11.00;95.10;;;;;;5115244;28;20061;-76
2023/04/07 10:42:36;;;;;;;14.60;5.72;;;11.10;95.00;;;;;;5115404;28;20032;-76
2023/04/07 10:45:02;;;;;;;14.25;5.10;;;11.10;94.90;;;;;;5115341;28;20032;-76
2023/04/07 10:47:28;;;;;;;14.02;6.00;;;11.10;94.80;;;;;;5115359;28;20020;-76
2023/04/07 10:50:24;;;;;;;14.40;5.50;;;11.10;94.70;;;;;;5114380;28;20029;-76
2023/04/07 10:53:14;;;;;;;8.93;3.60;;;11.10;94.60;;;;;;5098294;28;20036;-76
2023/04/07 10:55:53;;;;;;;9.00;3.17;;;11.10;94.30;;;;;;5114103;28;20016;-76
2023/04/07 10:58:19;;;;;;;9.52;3.60;;;11.00;94.40;;;;;;5115150;28;20024;-77
2023/04/07 11:01:00;;;;;;;9.50;4.20;;;10.90;94.50;;;;;;5115059;28;20389;-77
2023/04/07 11:03:27;;;;;;;7.45;3.72;;;10.90;94.60;;;;;;5115088;28;20035;-77
2023/04/07 11:06:02;;;;;;;9.60;3.47;;;10.90;94.70;;;;;;5113864;28;20043;-76
2023/04/07 11:08:32;;;;;;;9.57;3.80;;;10.90;94.60;;;;;;5114886;28;20024;-75
2023/04/07 11:10:58;;;;;;;8.75;3.22;;;10.90;94.60;;;;;;5113928;28;20036;-77
2023/04/07 11:13:24;;;;;;;6.47;3.25;;;10.90;94.70;;;;;;5096960;28;20036;-77
2023/04/07 11:15:51;;;;;;;9.85;3.20;;;10.90;94.70;;;;;;5114848;28;20035;-77
2023/04/07 11:18:22;;;;;;;11.20;4.45;;;10.90;94.70;;;;;;5113646;28;20062;-76
2023/04/07 11:20:52;;;;;;;7.30;2.95;;;10.90;94.60;;;;;;5114636;28;20042;-78
2023/04/07 11:23:19;;;;;;;7.07;2.80;;;10.90;94.60;;;;;;5114586;28;20024;-77
2023/04/07 11:25:46;;;;;;;6.63;2.40;;;10.90;94.60;;;;;;5113445;28;20031;-76
2023/04/07 11:28:13;;;;;;;7.47;2.42;;;11.00;94.50;;;;;;5113460;28;20031;-75
2023/04/07 11:30:48;;;;;;;6.22;2.70;;;11.00;94.40;;;;;;5113439;28;20043;-74
2023/04/07 11:33:26;;;;;;;4.78;2.63;;;11.00;94.80;;;;;;5114437;28;20016;-74
2023/04/07 11:35:54;;;;;;;9.75;2.58;;;11.00;94.40;;;;;;5114291;28;20038;-74
2023/04/07 11:38:21;;;;;;;8.02;3.00;;;11.10;94.50;;;;;;5114109;28;20040;-74
2023/04/07 11:40:47;;;;;;;7.75;3.00;;;11.10;94.50;;;;;;5114155;28;20096;-75
2023/04/07 11:43:26;;;;;;;7.68;2.78;;;11.10;94.30;;;;;;5114196;28;20020;-76
2023/04/07 11:46:12;;;;;;;7.93;2.83;;;11.20;94.30;;;;;;5114133;28;20028;-75
2023/04/07 11:48:40;;;;;;;8.50;2.92;;;11.20;94.20;;;;;;5114114;28;20069;-75
2023/04/07 11:51:15;;;;;;;6.70;3.03;;;11.20;93.90;;;;;;5114039;28;20027;-77
2023/04/07 11:53:40;;;;;;;5.80;2.78;;;11.20;93.80;;;;;;5113771;28;20050;-77
2023/04/07 11:56:09;;;;;;;6.68;2.83;;;11.20;93.80;;;;;;5112955;28;20028;-78
2023/04/07 11:58:37;;;;;;;4.93;2.90;;;11.20;93.60;;;;;;5114018;28;20028;-77
2023/04/07 12:01:08;;;;;;;8.13;2.67;;;11.20;93.70;;;;;;5114072;28;20028;-76
2023/04/07 12:03:37;;;;;;;7.30;3.47;;;11.20;93.70;;;;;;5112956;28;20032;-76
2023/04/07 12:06:03;;;;;;;7.20;2.95;;;11.20;93.80;;;;;;5113768;28;20036;-77
2023/04/07 12:08:43;;;;;;;8.18;3.10;;;11.20;93.80;;;;;;5112888;28;20028;-78
2023/04/07 12:11:09;;;;;;;6.70;2.97;;;11.20;93.80;;;;;;5113799;28;20031;-77
2023/04/07 12:13:36;;;;;;;6.38;2.47;;;11.20;93.80;;;;;;5112704;28;20016;-78
2023/04/07 12:16:02;;;;;;;5.28;2.65;;;11.20;93.70;;;;;;5113718;28;20095;-77
2023/04/07 12:18:28;;;;;;;7.22;3.47;;;11.10;93.50;;;;;;5113608;28;20107;-75
2023/04/07 12:20:54;;;;;;;9.43;3.58;;;11.10;93.60;;;;;;5113697;28;20023;-75
2023/04/07 12:23:21;;;;;;;11.35;3.67;;;11.20;93.70;;;;;;5113667;28;20016;-75
2023/04/07 12:25:47;;;;;;;12.00;3.05;;;11.20;93.50;;;;;;5113528;28;20028;-75
2023/04/07 12:28:12;;;;;;;11.18;3.85;;;11.20;93.60;;;;;;5113497;28;20027;-75
2023/04/07 12:30:38;;;;;;;8.10;2.85;;;11.20;93.60;;;;;;5113667;28;20028;-75
2023/04/07 12:33:04;;;;;;;8.02;3.05;;;11.20;93.60;;;;;;5112417;28;20035;-75
2023/04/07 12:35:29;;;;;;;9.88;3.30;;;11.20;93.60;;;;;;5112480;28;20028;-75
2023/04/07 12:37:55;;;;;;;7.15;3.00;;;11.20;93.60;;;;;;5113193;28;20524;-75
2023/04/07 12:40:22;;;;;;;9.07;2.78;;;11.20;93.50;;;;;;5113496;28;20091;-75
2023/04/07 12:42:47;;;;;;;9.10;3.25;;;11.30;93.60;;;;;;5112532;28;20020;-75